Time;durP1;ratioP1;P1;durP2;ratioP2;P2;SDS_P1;SDS_P2;PMS_P1;PMS_P2;Temp;Humidity;BMP_temperature;BMP_pressure;BME280_temperature;BME280_humidity;BME280_pressure;Samples;Min_cycle;Max_cycle;Signal;HPM_P1;HPM_P2
2020/12/31 00:02:14;;;;;;;7.28;5.05;;;;;;;1.09;83.84;95633.50;5064228;28;20040;-77
2020/12/31 00:04:41;;;;;;;5.97;4.28;;;;;;;1.12;83.83;95630.56;5062851;28;20040;-77
2020/12/31 00:07:08;;;;;;;6.63;4.88;;;;;;;1.14;83.67;95613.91;5057485;28;20144;-77
2020/12/31 00:09:37;;;;;;;8.35;4.75;;;;;;;1.19;83.53;95629.66;5067383;28;20033;-77
2020/12/31 00:12:05;;;;;;;7.97;4.72;;;;;;;1.24;83.74;95628.31;5062756;28;20056;-77
2020/12/31 00:14:31;;;;;;;8.20;5.40;;;;;;;1.26;83.52;95631.53;5057910;28;20041;-78
2020/12/31 00:16:58;;;;;;;8.18;5.63;;;;;;;1.27;83.63;95626.19;5064728;28;20064;-77
2020/12/31 00:19:24;;;;;;;8.20;5.35;;;;;;;1.30;83.44;95622.44;5067474;28;20048;-77
2020/12/31 00:21:51;;;;;;;8.05;5.57;;;;;;;1.32;83.46;95623.06;5064119;28;20037;-77
2020/12/31 00:24:17;;;;;;;9.50;6.72;;;;;;;1.32;83.32;95620.47;5063104;28;20053;-77
2020/12/31 00:26:43;;;;;;;10.23;6.13;;;;;;;1.26;83.13;95616.84;5057980;28;20048;-79
2020/12/31 00:29:10;;;;;;;8.32;6.03;;;;;;;1.22;83.24;95613.03;5047834;28;20045;-77
2020/12/31 00:31:36;;;;;;;8.55;5.78;;;;;;;1.24;83.35;95616.22;5067134;28;20053;-77
2020/12/31 00:34:02;;;;;;;8.65;6.28;;;;;;;1.27;83.69;95610.69;5057475;28;20032;-78
2020/12/31 00:36:29;;;;;;;9.73;6.70;;;;;;;1.30;83.63;95617.28;5058982;28;20401;-77
2020/12/31 00:38:55;;;;;;;9.52;6.68;;;;;;;1.32;83.55;95610.94;5045608;28;20044;-79
2020/12/31 00:41:21;;;;;;;8.15;6.10;;;;;;;1.33;83.52;95612.56;5061267;28;20409;-78
2020/12/31 00:43:48;;;;;;;8.05;6.32;;;;;;;1.34;83.56;95614.16;5059431;28;20063;-78
2020/12/31 00:46:15;;;;;;;9.52;6.30;;;;;;;1.28;83.23;95609.72;5061842;28;20051;-77
2020/12/31 00:48:42;;;;;;;8.95;6.35;;;;;;;1.24;83.34;95615.41;5063806;28;20051;-78
2020/12/31 00:51:08;;;;;;;8.88;6.20;;;;;;;1.23;83.25;95614.63;5065777;28;20048;-79
2020/12/31 00:53:35;;;;;;;9.77;6.70;;;;;;;1.24;83.52;95611.06;5067111;28;20029;-78
2020/12/31 00:56:01;;;;;;;9.90;6.70;;;;;;;1.24;83.50;95610.25;5060982;28;20057;-75
2020/12/31 00:58:27;;;;;;;11.13;6.93;;;;;;;1.21;83.06;95608.81;5056778;28;20045;-75
2020/12/31 01:00:53;;;;;;;9.15;6.65;;;;;;;1.19;82.95;95611.59;5063774;28;20401;-75
2020/12/31 01:03:19;;;;;;;9.77;6.57;;;;;;;1.18;83.15;95615.16;5063832;28;20044;-75
2020/12/31 01:05:46;;;;;;;9.50;6.20;;;;;;;1.21;83.21;95611.41;5057904;28;20408;-78
2020/12/31 01:08:12;;;;;;;8.45;5.88;;;;;;;1.21;83.28;95612.19;5061889;28;20056;-78
2020/12/31 01:10:38;;;;;;;11.73;6.35;;;;;;;1.23;83.18;95617.19;5067321;28;20508;-78
2020/12/31 01:13:04;;;;;;;9.55;6.32;;;;;;;1.21;83.22;95625.13;5062002;28;20408;-78
2020/12/31 01:15:32;;;;;;;10.70;5.95;;;;;;;1.20;82.91;95609.81;5059870;28;20044;-79
2020/12/31 01:17:59;;;;;;;8.27;5.93;;;;;;;1.20;82.81;95615.00;5060315;28;20496;-78
2020/12/31 01:20:25;;;;;;;10.63;6.25;;;;;;;1.21;82.96;95612.19;5064384;28;20046;-78
2020/12/31 01:22:53;;;;;;;9.23;6.28;;;;;;;1.19;82.35;95610.78;5065986;28;20461;-78
2020/12/31 01:25:19;;;;;;;10.98;6.40;;;;;;;1.14;82.49;95611.34;5064470;28;20044;-78
2020/12/31 01:27:46;;;;;;;8.30;5.97;;;;;;;1.15;82.74;95609.53;5058825;28;20052;-78
2020/12/31 01:30:12;;;;;;;10.25;6.13;;;;;;;1.18;82.93;95611.78;5065054;28;20492;-78
2020/12/31 01:32:38;;;;;;;9.68;6.40;;;;;;;1.20;82.94;95602.06;5066486;28;20047;-79
2020/12/31 01:35:05;;;;;;;9.43;5.97;;;;;;;1.21;82.78;95601.06;5068278;28;20045;-78
2020/12/31 01:37:31;;;;;;;9.10;6.35;;;;;;;1.20;82.72;95605.44;5070614;28;20048;-78
2020/12/31 01:39:57;;;;;;;11.07;6.95;;;;;;;1.22;82.71;95602.69;5063193;28;20044;-78
2020/12/31 01:42:23;;;;;;;9.55;6.70;;;;;;;1.21;82.79;95599.28;5066725;28;20056;-78
2020/12/31 01:44:49;;;;;;;9.40;6.32;;;;;;;1.18;82.77;95594.50;5063249;28;20049;-78
2020/12/31 01:47:17;;;;;;;9.10;6.05;;;;;;;1.17;82.74;95594.66;5067789;28;20049;-78
2020/12/31 01:49:45;;;;;;;9.90;6.53;;;;;;;1.14;82.66;95592.47;5061212;28;20056;-78
2020/12/31 01:52:14;;;;;;;9.85;7.15;;;;;;;1.13;82.38;95593.44;5067849;28;20048;-78
2020/12/31 01:54:44;;;;;;;11.30;7.05;;;;;;;1.09;82.22;95587.84;5070976;28;20049;-78
2020/12/31 01:57:14;;;;;;;13.48;7.50;;;;;;;1.06;82.31;95577.84;5061148;28;20377;-78
2020/12/31 01:59:41;;;;;;;11.30;6.80;;;;;;;1.06;82.37;95583.03;5063464;28;20044;-78
2020/12/31 02:02:08;;;;;;;12.15;6.97;;;;;;;1.05;82.12;95578.03;5070911;28;20040;-78
2020/12/31 02:04:38;;;;;;;8.35;6.60;;;;;;;1.00;82.30;95584.53;5064375;28;20047;-78
2020/12/31 02:07:07;;;;;;;10.75;7.00;;;;;;;1.00;82.49;95587.09;5061538;28;20504;-78
2020/12/31 02:09:34;;;;;;;11.52;7.05;;;;;;;0.98;82.31;95577.94;5063534;28;20060;-78
2020/12/31 02:12:04;;;;;;;9.63;6.40;;;;;;;0.99;82.35;95576.97;5050887;28;20037;-79
2020/12/31 02:14:32;;;;;;;12.60;7.22;;;;;;;0.98;82.56;95573.56;5064192;28;20052;-79
2020/12/31 02:16:58;;;;;;;13.77;7.32;;;;;;;0.98;82.46;95578.75;5062791;28;20067;-79
2020/12/31 02:19:25;;;;;;;10.85;6.40;;;;;;;0.91;81.47;95582.25;5067208;28;20040;-79
2020/12/31 02:21:52;;;;;;;13.23;7.28;;;;;;;0.82;81.68;95576.38;5071218;28;20052;-79
2020/12/31 02:24:21;;;;;;;13.10;7.22;;;;;;;0.78;82.03;95582.88;5062076;28;20036;-79
2020/12/31 02:26:49;;;;;;;11.02;7.07;;;;;;;0.79;82.28;95577.50;5063171;28;20045;-79
2020/12/31 02:29:17;;;;;;;9.20;6.68;;;;;;;0.78;82.07;95572.53;5067514;28;20048;-79
2020/12/31 02:31:46;;;;;;;15.68;7.88;;;;;;;0.75;81.81;95560.78;5063206;28;20044;-80
2020/12/31 02:34:12;;;;;;;10.05;6.93;;;;;;;0.72;82.01;95562.94;5067398;28;20044;-79
2020/12/31 02:36:39;;;;;;;11.18;6.60;;;;;;;0.71;81.99;95561.31;5046044;28;20047;-80
2020/12/31 02:39:08;;;;;;;10.27;6.50;;;;;;;0.68;82.12;95561.69;5058758;28;20045;-79
2020/12/31 02:41:35;;;;;;;11.73;6.95;;;;;;;0.65;82.09;95560.25;5065443;28;20044;-80
2020/12/31 02:44:03;;;;;;;10.07;7.30;;;;;;;0.63;81.94;95559.63;5068526;28;20047;-80
2020/12/31 02:46:29;;;;;;;9.73;6.57;;;;;;;0.62;81.92;95559.81;5069002;28;20052;-79
2020/12/31 02:48:56;;;;;;;13.80;7.03;;;;;;;0.59;81.77;95564.34;5067771;28;20503;-80
2020/12/31 02:51:22;;;;;;;10.43;6.55;;;;;;;0.59;81.81;95560.97;5058487;28;20044;-80
2020/12/31 02:53:48;;;;;;;9.48;6.32;;;;;;;0.56;81.80;95558.72;5067639;28;20496;-79
2020/12/31 02:56:17;;;;;;;8.93;5.78;;;;;;;0.55;81.67;95554.56;5064001;28;20045;-80
2020/12/31 02:58:43;;;;;;;7.93;5.35;;;;;;;0.53;81.70;95549.56;5065534;28;20044;-80
2020/12/31 03:01:10;;;;;;;10.73;7.35;;;;;;;0.50;81.40;95560.22;5062298;28;20039;-80
2020/12/31 03:03:37;;;;;;;12.70;8.05;;;;;;;0.50;81.65;95557.66;5063297;28;20052;-80
2020/12/31 03:06:04;;;;;;;14.02;7.85;;;;;;;0.48;81.53;95557.03;5079750;28;20051;-79
2020/12/31 03:08:31;;;;;;;13.18;8.35;;;;;;;0.47;81.57;95544.31;5047669;28;20044;-79
2020/12/31 03:10:58;;;;;;;10.68;6.38;;;;;;;0.42;81.30;95546.63;5083754;28;20059;-80
2020/12/31 03:13:25;;;;;;;10.65;6.05;;;;;;;0.41;81.59;95548.41;5065447;28;20048;-79
2020/12/31 03:15:52;;;;;;;10.63;6.75;;;;;;;0.38;81.75;95544.41;5087092;28;20048;-80
2020/12/31 03:18:19;;;;;;;11.88;6.50;;;;;;;0.37;81.63;95544.56;5077991;28;20047;-80
2020/12/31 03:20:46;;;;;;;11.90;7.28;;;;;;;0.35;81.51;95547.31;5063256;28;20049;-79
2020/12/31 03:23:13;;;;;;;8.88;6.07;;;;;;;0.34;81.64;95547.50;5069108;28;20048;-80
2020/12/31 03:25:41;;;;;;;12.27;6.45;;;;;;;0.31;81.60;95543.47;5083538;28;20495;-79
2020/12/31 03:28:08;;;;;;;9.73;6.47;;;;;;;0.30;81.60;95541.91;5060453;28;20040;-80
2020/12/31 03:30:35;;;;;;;8.68;6.13;;;;;;;0.28;81.38;95541.28;5086181;28;20049;-80
2020/12/31 03:33:03;;;;;;;11.95;6.65;;;;;;;0.23;81.37;95535.03;5071104;28;20044;-80
2020/12/31 03:35:29;;;;;;;8.95;5.78;;;;;;;0.21;81.28;95535.22;5078038;28;20051;-80
2020/12/31 03:37:55;;;;;;;11.32;6.70;;;;;;;0.16;81.22;95534.94;5063879;28;20043;-80
2020/12/31 03:40:22;;;;;;;9.70;6.05;;;;;;;0.14;81.25;95540.25;5072443;28;20473;-80
2020/12/31 03:42:48;;;;;;;8.80;6.07;;;;;;;0.10;81.30;95528.69;5081969;28;20043;-80
2020/12/31 03:45:15;;;;;;;12.27;6.97;;;;;;;0.09;81.38;95531.47;5080636;28;20036;-79
2020/12/31 03:47:41;;;;;;;10.25;6.47;;;;;;;0.07;81.13;95523.09;5067433;28;20060;-80
2020/12/31 03:50:07;;;;;;;8.63;6.18;;;;;;;0.03;81.22;95514.13;5084542;28;20400;-80
2020/12/31 03:52:34;;;;;;;10.25;6.18;;;;;;;-0.01;81.19;95516.25;5078803;28;20040;-79
2020/12/31 03:55:00;;;;;;;9.75;5.93;;;;;;;-0.02;81.34;95515.44;5065067;28;20055;-79
2020/12/31 03:57:26;;;;;;;9.75;6.25;;;;;;;-0.05;81.11;95505.47;5088469;28;20048;-80
2020/12/31 03:59:53;;;;;;;10.13;6.80;;;;;;;-0.06;81.24;95497.94;5082195;28;20043;-80
2020/12/31 04:02:19;;;;;;;7.75;6.28;;;;;;;-0.09;81.15;95499.06;5076478;28;20045;-80
2020/12/31 04:04:45;;;;;;;10.10;6.22;;;;;;;-0.08;81.35;95505.03;5053308;28;20049;-80
2020/12/31 04:07:11;;;;;;;9.07;5.97;;;;;;;-0.10;81.06;95501.84;5087544;28;20059;-80
2020/12/31 04:09:38;;;;;;;7.53;5.75;;;;;;;-0.12;81.26;95499.41;5066010;28;20052;-80
2020/12/31 04:12:04;;;;;;;8.35;5.88;;;;;;;-0.13;81.30;95486.69;5082493;28;20048;-80
2020/12/31 04:14:30;;;;;;;13.35;8.60;;;;;;;-0.16;81.13;95492.22;5077440;28;20040;-80
2020/12/31 04:16:56;;;;;;;16.52;9.80;;;;;;;-0.15;81.01;95486.06;5083113;28;20048;-80
2020/12/31 04:19:22;;;;;;;24.05;11.95;;;;;;;-0.17;81.10;95483.66;5064870;28;20381;-80
2020/12/31 04:21:49;;;;;;;8.98;5.82;;;;;;;-0.22;80.75;95479.03;5083302;28;20045;-80
2020/12/31 04:24:15;;;;;;;10.40;6.57;;;;;;;-0.29;80.87;95478.16;5087634;28;20487;-80
2020/12/31 04:26:48;;;;;;;9.02;5.50;;;;;;;-0.34;80.79;95475.28;5063763;28;20036;-80
2020/12/31 04:29:14;;;;;;;8.45;5.70;;;;;;;-0.35;80.86;95478.03;5064369;28;20024;-80
2020/12/31 04:31:40;;;;;;;9.10;5.82;;;;;;;-0.43;80.93;95473.75;5082124;28;20048;-80
2020/12/31 04:34:06;;;;;;;13.77;8.73;;;;;;;-0.48;80.71;95466.56;5081594;28;20053;-80
2020/12/31 04:36:33;;;;;;;11.13;7.45;;;;;;;-0.49;80.97;95469.28;5070214;28;20048;-80
2020/12/31 04:38:59;;;;;;;7.93;5.35;;;;;;;-0.49;81.00;95459.78;5080430;28;20499;-80
2020/12/31 04:41:25;;;;;;;9.55;6.28;;;;;;;-0.49;80.92;95456.41;5082700;28;20036;-80
2020/12/31 04:43:52;;;;;;;16.77;7.70;;;;;;;-0.52;80.51;95455.00;5080580;28;20049;-80
2020/12/31 04:46:21;;;;;;;10.77;6.20;;;;;;;-0.54;80.83;95451.00;5089312;28;20407;-80
2020/12/31 04:49:12;;;;;;;8.13;4.85;;;;;;;-0.56;80.04;95455.50;5083110;28;20032;-80
2020/12/31 04:51:38;;;;;;;8.63;5.68;;;;;;;-0.64;80.43;95444.28;5083679;28;20044;-79
2020/12/31 04:54:07;;;;;;;9.05;6.05;;;;;;;-0.72;79.98;95453.84;5078660;28;20473;-80
2020/12/31 04:56:37;;;;;;;7.15;4.90;;;;;;;-0.78;80.43;95452.75;5063768;28;20476;-80
2020/12/31 04:59:05;;;;;;;10.00;5.75;;;;;;;-0.76;80.58;95453.38;5084947;28;20052;-80
2020/12/31 05:01:32;;;;;;;8.80;6.47;;;;;;;-0.79;80.41;95443.44;5082995;28;20054;-80
2020/12/31 05:03:59;;;;;;;7.00;4.85;;;;;;;-0.77;80.49;95453.56;5063674;28;20059;-79
2020/12/31 05:06:34;;;;;;;8.27;5.45;;;;;;;-0.77;80.47;95451.78;5058132;28;20048;-79
2020/12/31 05:09:14;;;;;;;6.53;4.80;;;;;;;-0.76;80.36;95450.81;5059292;28;20390;-80
2020/12/31 05:11:48;;;;;;;8.65;5.70;;;;;;;-0.73;80.47;95455.63;5066761;28;20055;-80
2020/12/31 05:14:35;;;;;;;8.95;5.53;;;;;;;-0.71;80.08;95443.38;5061621;28;20040;-80
2020/12/31 05:17:22;;;;;;;9.88;6.47;;;;;;;-0.73;79.64;95449.69;5061463;28;20052;-80
2020/12/31 05:19:48;;;;;;;6.10;4.40;;;;;;;-0.73;79.99;95449.69;5066501;28;20469;-80
2020/12/31 05:22:18;;;;;;;6.45;4.53;;;;;;;-0.74;79.93;95451.44;5061652;28;20044;-80
2020/12/31 05:24:51;;;;;;;8.13;4.53;;;;;;;-0.74;80.00;95443.72;5058978;28;20048;-80
2020/12/31 05:27:28;;;;;;;6.37;4.90;;;;;;;-0.71;79.70;95447.75;5071913;28;20058;-80
2020/12/31 05:29:56;;;;;;;19.67;13.05;;;;;;;-0.71;79.78;95445.16;5059496;28;20051;-80
2020/12/31 05:32:24;;;;;;;10.75;8.15;;;;;;;-0.70;79.88;95436.44;5058927;28;20115;-79
2020/12/31 05:34:54;;;;;;;6.70;4.28;;;;;;;-0.69;79.54;95449.16;5064890;28;20053;-80
2020/12/31 05:37:22;;;;;;;8.07;4.60;;;;;;;-0.71;79.31;95440.03;5064045;28;20432;-80
2020/12/31 05:39:55;;;;;;;5.97;4.43;;;;;;;-0.71;79.24;95432.28;5058720;28;20473;-79
2020/12/31 05:42:23;;;;;;;6.23;4.30;;;;;;;-0.74;79.40;95433.41;5063518;28;20041;-80
2020/12/31 05:44:59;;;;;;;7.90;5.03;;;;;;;-0.74;79.36;95433.41;5066351;28;20044;-79
2020/12/31 05:47:25;;;;;;;8.65;4.53;;;;;;;-0.75;79.20;95431.84;5063453;28;20036;-79
2020/12/31 05:49:54;;;;;;;8.43;4.55;;;;;;;-0.80;79.04;95431.53;5058664;28;20056;-80
2020/12/31 05:52:41;;;;;;;7.25;4.60;;;;;;;-0.82;78.57;95434.28;5064279;28;20033;-80
2020/12/31 05:55:08;;;;;;;8.27;5.03;;;;;;;-0.84;79.20;95438.00;5043843;28;20075;-80
2020/12/31 05:58:08;;;;;;;7.78;4.50;;;;;;;-0.87;77.41;95428.06;5063816;28;20377;-80
2020/12/31 06:00:38;;;;;;;8.43;4.82;;;;;;;-0.90;78.74;95428.41;5046970;28;20040;-80
2020/12/31 06:03:15;;;;;;;8.07;4.53;;;;;;;-0.90;78.54;95421.47;5060430;28;20045;-80
2020/12/31 06:06:03;;;;;;;8.30;5.03;;;;;;;-0.90;78.19;95429.19;5066095;28;20059;-80
2020/12/31 06:08:32;;;;;;;7.50;4.90;;;;;;;-0.91;78.66;95421.66;5080248;28;20053;-80
2020/12/31 06:11:03;;;;;;;8.98;5.10;;;;;;;-0.91;78.47;95424.22;5085050;28;20053;-79
2020/12/31 06:13:38;;;;;;;9.57;5.18;;;;;;;-0.89;78.27;95422.28;5082730;28;20051;-79
2020/12/31 06:16:05;;;;;;;9.48;5.25;;;;;;;-0.90;78.69;95418.91;5067093;28;20476;-80
2020/12/31 06:18:36;;;;;;;8.20;5.22;;;;;;;-0.91;78.60;95417.28;5088360;28;20381;-80
2020/12/31 06:21:03;;;;;;;10.27;5.53;;;;;;;-0.92;78.56;95423.44;5061631;28;20040;-79
2020/12/31 06:23:37;;;;;;;7.60;4.95;;;;;;;-0.92;78.31;95423.44;5084418;28;20044;-80
2020/12/31 06:26:12;;;;;;;8.57;4.95;;;;;;;-0.92;78.61;95414.91;5081763;28;20032;-80
2020/12/31 06:28:48;;;;;;;9.02;5.28;;;;;;;-0.92;78.41;95415.69;5085419;28;20045;-79
2020/12/31 06:31:14;;;;;;;7.03;4.53;;;;;;;-0.93;78.47;95408.16;5087250;28;20055;-79
2020/12/31 06:33:49;;;;;;;7.40;5.20;;;;;;;-0.98;78.39;95411.25;5067088;28;20059;-79
2020/12/31 06:36:17;;;;;;;6.80;5.07;;;;;;;-1.00;78.29;95410.63;5083350;28;20047;-79
2020/12/31 06:38:49;;;;;;;8.50;5.00;;;;;;;-0.99;78.55;95412.19;5081499;28;20047;-80
2020/12/31 06:41:31;;;;;;;7.10;4.93;;;;;;;-0.94;78.33;95412.50;5089988;28;20045;-80
2020/12/31 06:44:16;;;;;;;8.63;4.88;;;;;;;-0.89;78.28;95409.41;5086369;28;20051;-80
2020/12/31 06:46:47;;;;;;;9.32;5.55;;;;;;;-0.88;78.60;95411.81;5069834;28;20045;-80
2020/12/31 06:49:15;;;;;;;8.40;5.72;;;;;;;-0.86;78.44;95407.28;5087019;28;20051;-80
2020/12/31 06:51:41;;;;;;;8.95;5.82;;;;;;;-0.84;78.47;95409.69;5086029;28;20052;-80
2020/12/31 06:54:08;;;;;;;10.05;5.80;;;;;;;-0.85;78.47;95410.66;5079882;28;20027;-80
2020/12/31 06:56:43;;;;;;;9.93;6.15;;;;;;;-0.82;78.24;95412.88;5082752;28;20056;-80
2020/12/31 06:59:27;;;;;;;10.20;5.72;;;;;;;-0.80;77.82;95408.38;5082928;28;20487;-79
2020/12/31 07:01:55;;;;;;;8.27;5.88;;;;;;;-0.82;77.94;95408.56;5080152;28;20048;-79
2020/12/31 07:04:36;;;;;;;8.73;5.70;;;;;;;-0.81;77.78;95404.19;5057312;28;20400;-80
2020/12/31 07:07:26;;;;;;;9.00;5.65;;;;;;;-0.80;77.41;95405.00;5087154;28;20049;-80
2020/12/31 07:10:00;;;;;;;7.80;5.80;;;;;;;-0.79;78.00;95402.25;5075403;28;20472;-80
2020/12/31 07:12:38;;;;;;;7.93;5.68;;;;;;;-0.76;77.50;95401.91;5087364;28;20468;-79
2020/12/31 07:15:05;;;;;;;8.27;5.30;;;;;;;-0.76;78.31;95391.59;5081511;28;20480;-79
2020/12/31 07:17:42;;;;;;;7.70;5.53;;;;;;;-0.71;78.45;95396.25;5084811;28;20048;-79
2020/12/31 07:20:11;;;;;;;9.27;6.30;;;;;;;-0.66;78.08;95396.53;5081651;28;20047;-79
2020/12/31 07:22:39;;;;;;;9.10;5.93;;;;;;;-0.65;77.94;95398.94;5084339;28;20052;-79
2020/12/31 07:25:12;;;;;;;9.63;6.13;;;;;;;-0.66;77.63;95392.16;5085994;28;20041;-80
2020/12/31 07:27:44;;;;;;;8.02;5.25;;;;;;;-0.68;77.60;95395.91;5086977;28;20369;-80
2020/12/31 07:30:14;;;;;;;10.82;5.85;;;;;;;-0.67;77.65;95393.16;5064766;28;20036;-79
2020/12/31 07:32:50;;;;;;;11.73;6.45;;;;;;;-0.66;77.29;95391.38;5061100;28;20048;-80
2020/12/31 07:35:33;;;;;;;11.23;6.35;;;;;;;-0.67;77.77;95390.56;5082084;28;20037;-80
2020/12/31 07:38:19;;;;;;;12.15;6.80;;;;;;;-0.66;76.52;95392.16;5083228;28;20439;-79
2020/12/31 07:40:48;;;;;;;16.48;9.93;;;;;;;-0.64;77.82;95387.66;5043132;28;20064;-80
2020/12/31 07:43:25;;;;;;;10.38;6.65;;;;;;;-0.60;77.48;95392.47;5074434;28;20055;-79
2020/12/31 07:45:53;;;;;;;11.68;6.75;;;;;;;-0.61;77.50;95396.78;5086360;28;20380;-79
2020/12/31 07:48:21;;;;;;;9.23;5.70;;;;;;;-0.60;77.63;95392.47;5085097;28;20036;-79
2020/12/31 07:51:01;;;;;;;11.73;6.65;;;;;;;-0.55;77.68;95379.84;5080598;28;20491;-80
2020/12/31 07:53:29;;;;;;;12.18;7.15;;;;;;;-0.49;77.91;95392.81;5077920;28;20032;-80
2020/12/31 07:55:56;;;;;;;9.43;6.38;;;;;;;-0.48;77.64;95388.50;5088023;28;20056;-79
2020/12/31 07:58:28;;;;;;;9.65;6.68;;;;;;;-0.47;77.40;95385.72;5086267;28;20040;-79
2020/12/31 08:01:03;;;;;;;9.23;6.05;;;;;;;-0.43;77.86;95383.59;5048439;28;20049;-80
2020/12/31 08:03:30;;;;;;;10.05;6.40;;;;;;;-0.38;77.78;95383.88;5084767;28;20052;-80
2020/12/31 08:05:57;;;;;;;9.95;6.78;;;;;;;-0.38;77.67;95377.91;5080243;28;20051;-79
2020/12/31 08:08:25;;;;;;;9.77;6.47;;;;;;;-0.34;77.67;95368.88;5080244;28;20078;-80
2020/12/31 08:10:51;;;;;;;11.90;6.95;;;;;;;-0.34;77.70;95374.81;5085870;28;20040;-80
2020/12/31 08:13:18;;;;;;;11.82;6.55;;;;;;;-0.32;77.36;95369.50;5070684;28;20043;-80
2020/12/31 08:15:54;;;;;;;9.63;6.50;;;;;;;-0.26;77.52;95385.03;5076048;28;20059;-80
2020/12/31 08:18:22;;;;;;;12.20;6.82;;;;;;;-0.24;77.48;95383.09;5085849;28;20066;-79
2020/12/31 08:20:51;;;;;;;10.93;6.85;;;;;;;-0.21;77.55;95375.03;5090327;28;20044;-79
2020/12/31 08:23:27;;;;;;;11.25;7.00;;;;;;;-0.16;77.84;95373.69;5085028;28;20044;-79
2020/12/31 08:25:56;;;;;;;10.75;6.60;;;;;;;-0.15;77.36;95375.28;5081998;28;20056;-79
2020/12/31 08:28:23;;;;;;;11.18;7.22;;;;;;;-0.21;76.94;95367.28;5086931;28;20052;-79
2020/12/31 08:30:49;;;;;;;9.80;6.85;;;;;;;-0.22;77.20;95375.19;5066577;28;20463;-79
2020/12/31 08:33:23;;;;;;;10.13;6.93;;;;;;;-0.20;76.90;95370.66;5084089;28;20054;-79
2020/12/31 08:35:50;;;;;;;;;;;;;;;-0.21;76.11;95375.03;5073159;28;20084;-79
2020/12/31 08:38:23;;;;;;;11.73;7.13;;;;;;;-0.20;76.94;95378.41;5071141;28;20363;-79
2020/12/31 08:40:52;;;;;;;12.38;7.45;;;;;;;-0.19;76.95;95374.81;5085091;28;20381;-79
2020/12/31 08:43:23;;;;;;;11.75;7.40;;;;;;;-0.20;76.96;95378.41;5080289;28;20036;-79
2020/12/31 08:45:51;;;;;;;14.52;8.25;;;;;;;-0.21;76.95;95382.75;5062003;28;20051;-79
2020/12/31 08:48:23;;;;;;;14.98;7.80;;;;;;;-0.23;77.06;95379.56;5076446;28;20043;-79
2020/12/31 08:51:14;;;;;;;11.25;7.43;;;;;;;-0.18;76.96;95380.81;5084266;28;20047;-79
2020/12/31 08:54:14;;;;;;;13.45;7.75;;;;;;;-0.11;77.26;95384.25;5082224;28;20052;-79
2020/12/31 08:56:41;;;;;;;11.85;7.22;;;;;;;-0.10;77.02;95381.50;5056178;28;20057;-79
2020/12/31 08:59:15;;;;;;;11.07;7.10;;;;;;;-0.09;77.04;95379.72;5066983;28;20048;-79
2020/12/31 09:01:43;;;;;;;10.98;7.25;;;;;;;-0.07;77.10;95373.41;5083869;28;20059;-79
2020/12/31 09:04:20;;;;;;;13.77;8.07;;;;;;;-0.03;77.20;95379.81;5081164;28;20040;-79
2020/12/31 09:06:48;;;;;;;12.02;7.88;;;;;;;0.05;77.24;95388.44;5084829;28;20052;-79
2020/12/31 09:09:25;;;;;;;10.40;7.10;;;;;;;0.09;77.07;95372.44;5085951;28;20048;-79
2020/12/31 09:11:57;;;;;;;11.27;7.28;;;;;;;0.15;76.90;95379.47;5081293;28;20047;-79
2020/12/31 09:14:25;;;;;;;13.40;8.07;;;;;;;0.20;77.01;95382.28;5092683;28;20047;-79
2020/12/31 09:16:52;;;;;;;11.82;8.27;;;;;;;0.26;77.22;95387.72;5076958;28;20484;-79
2020/12/31 09:19:18;;;;;;;13.70;8.15;;;;;;;0.30;77.17;95383.81;5065839;28;20041;-79
2020/12/31 09:21:45;;;;;;;14.35;7.80;;;;;;;0.30;76.81;95382.03;5082129;28;20040;-78
2020/12/31 09:24:16;;;;;;;11.57;7.43;;;;;;;0.30;76.63;95376.88;5084058;28;20044;-79
2020/12/31 09:26:59;;;;;;;11.75;7.60;;;;;;;0.32;75.90;95374.91;5081939;28;20055;-79
2020/12/31 09:29:27;;;;;;;11.63;7.57;;;;;;;0.30;76.44;95376.88;5066780;28;20032;-79
2020/12/31 09:31:53;;;;;;;12.73;7.93;;;;;;;0.33;76.87;95378.28;5068652;28;20044;-79
2020/12/31 09:34:22;;;;;;;11.32;7.97;;;;;;;0.38;76.94;95376.78;5079959;28;20044;-78
2020/12/31 09:36:48;;;;;;;12.18;8.27;;;;;;;0.46;76.83;95375.84;5046519;28;20409;-78
2020/12/31 09:39:14;;;;;;;12.07;7.80;;;;;;;0.52;77.01;95369.97;5086486;28;20044;-78
2020/12/31 09:41:40;;;;;;;12.75;7.88;;;;;;;0.57;76.51;95374.59;5081196;28;20385;-78
2020/12/31 09:44:07;;;;;;;15.23;8.13;;;;;;;0.58;76.39;95368.44;5081484;28;20396;-78
2020/12/31 09:46:33;;;;;;;12.98;8.25;;;;;;;0.57;75.96;95359.91;5081718;28;20063;-78
2020/12/31 09:48:59;;;;;;;12.57;7.88;;;;;;;0.60;75.99;95361.31;5085810;28;20408;-78
2020/12/31 09:51:25;;;;;;;11.10;7.68;;;;;;;0.67;76.36;95363.97;5088813;28;20036;-78
2020/12/31 09:53:52;;;;;;;12.25;8.27;;;;;;;0.71;75.75;95360.06;5063143;28;20053;-78
2020/12/31 09:56:19;;;;;;;10.45;6.80;;;;;;;0.72;75.45;95365.03;5067679;28;20044;-77
2020/12/31 09:58:45;;;;;;;12.07;7.32;;;;;;;0.69;75.60;95360.22;5090688;28;20051;-77
2020/12/31 10:01:12;;;;;;;11.55;7.25;;;;;;;0.71;75.79;95363.41;5079554;28;20519;-77
2020/12/31 10:03:38;;;;;;;13.98;8.75;;;;;;;0.70;75.95;95356.69;5081614;28;20052;-76
2020/12/31 10:06:08;;;;;;;13.40;8.73;;;;;;;0.68;76.29;95350.91;5086464;28;20405;-75
2020/12/31 10:08:34;;;;;;;12.60;9.35;;;;;;;0.71;76.62;95352.31;5070615;28;20476;-75
2020/12/31 10:11:00;;;;;;;11.95;9.15;;;;;;;0.69;76.62;95354.28;5072561;28;20051;-75
2020/12/31 10:13:28;;;;;;;14.80;9.38;;;;;;;0.55;76.83;95348.97;5083045;28;20062;-76
2020/12/31 10:15:54;;;;;;;13.65;9.77;;;;;;;0.47;77.14;95348.31;5083676;28;20040;-76
2020/12/31 10:18:20;;;;;;;15.27;10.30;;;;;;;0.39;77.53;95357.72;5065022;28;20053;-76
2020/12/31 10:20:46;;;;;;;17.73;10.55;;;;;;;0.34;77.91;95359.25;5087030;28;20053;-76
2020/12/31 10:23:12;;;;;;;25.10;14.40;;;;;;;0.25;78.94;95350.81;5088595;28;20051;-76
2020/12/31 10:25:39;;;;;;;14.05;9.05;;;;;;;0.23;79.39;95346.81;5084474;28;20479;-76
2020/12/31 10:28:05;;;;;;;14.70;8.57;;;;;;;0.21;79.70;95352.19;5085689;28;20044;-76
2020/12/31 10:30:31;;;;;;;14.35;8.93;;;;;;;0.20;80.34;95341.03;5081767;28;20052;-76
2020/12/31 10:32:57;;;;;;;13.98;8.30;;;;;;;0.19;80.76;95336.09;5085116;28;20040;-76
2020/12/31 10:35:23;;;;;;;13.27;8.57;;;;;;;0.20;80.52;95328.16;5087859;28;20048;-76
2020/12/31 10:37:50;;;;;;;13.40;8.25;;;;;;;0.28;80.74;95322.09;5082640;28;20078;-76
2020/12/31 10:40:16;;;;;;;14.40;8.57;;;;;;;0.36;80.60;95311.69;5083277;28;20047;-77
2020/12/31 10:42:42;;;;;;;14.90;8.85;;;;;;;0.37;80.64;95307.31;5090573;28;20056;-76
2020/12/31 10:45:08;;;;;;;15.90;9.23;;;;;;;0.37;81.02;95312.47;5083560;28;20058;-76
2020/12/31 10:47:34;;;;;;;13.30;8.43;;;;;;;0.40;80.92;95309.53;5040505;28;20491;-77
2020/12/31 10:50:01;;;;;;;16.17;10.43;;;;;;;0.42;81.30;95306.75;5086630;28;20044;-77
2020/12/31 10:52:28;;;;;;;14.80;8.43;;;;;;;0.46;80.85;95305.41;5085429;28;20098;-77
2020/12/31 10:54:54;;;;;;;12.93;8.20;;;;;;;0.46;81.21;95298.47;5066657;28;20032;-77
2020/12/31 10:57:20;;;;;;;11.88;8.27;;;;;;;0.57;80.64;95297.22;5083536;28;20052;-76
2020/12/31 10:59:47;;;;;;;14.80;7.07;;;;;;;0.67;80.41;95289.94;5068934;28;20052;-76
2020/12/31 11:02:13;;;;;;;12.27;8.77;;;;;;;0.73;80.34;95289.22;5089840;28;20476;-77
2020/12/31 11:04:39;;;;;;;12.45;7.70;;;;;;;0.80;80.12;95284.13;5067751;28;20040;-76
2020/12/31 11:07:08;;;;;;;11.90;7.85;;;;;;;0.87;79.78;95282.41;5064353;28;20052;-76
2020/12/31 11:09:35;;;;;;;13.55;7.95;;;;;;;0.95;79.99;95279.69;5082054;28;20063;-78
2020/12/31 11:12:01;;;;;;;11.15;7.53;;;;;;;1.01;79.83;95276.38;5088966;28;20059;-76
2020/12/31 11:14:27;;;;;;;12.95;8.65;;;;;;;1.00;79.65;95274.75;5088982;28;20052;-76
2020/12/31 11:16:54;;;;;;;15.55;10.32;;;;;;;1.00;79.83;95272.16;5079094;28;20039;-76
2020/12/31 11:19:20;;;;;;;14.85;9.52;;;;;;;0.98;80.01;95276.72;5084136;28;20051;-77
2020/12/31 11:21:50;;;;;;;11.50;8.63;;;;;;;1.00;80.26;95271.38;5090406;28;20032;-76
2020/12/31 11:24:17;;;;;;;14.73;9.02;;;;;;;1.04;80.29;95271.81;5067729;28;20055;-76
2020/12/31 11:26:44;;;;;;;12.32;7.32;;;;;;;1.02;79.89;95264.25;5083591;28;20040;-76
2020/12/31 11:29:11;;;;;;;10.57;7.43;;;;;;;1.01;79.86;95262.66;5081148;28;20465;-76
2020/12/31 11:31:37;;;;;;;11.55;8.18;;;;;;;1.02;80.01;95259.88;5091487;28;20039;-77
2020/12/31 11:34:04;;;;;;;17.00;9.02;;;;;;;1.06;80.09;95257.72;5080900;28;20059;-76
2020/12/31 11:36:33;;;;;;;11.98;7.50;;;;;;;1.09;79.94;95254.78;5044912;28;20412;-78
2020/12/31 11:39:03;;;;;;;12.48;7.57;;;;;;;1.14;79.97;95252.41;5082011;28;20481;-76
2020/12/31 11:41:29;;;;;;;12.07;8.10;;;;;;;1.14;79.81;95247.25;5094018;28;20064;-76
2020/12/31 11:43:55;;;;;;;17.85;9.35;;;;;;;1.12;79.87;95241.47;5061419;28;20051;-78